This is the latest recevied weather packets stored in our database for station/object 5B4ALR-13. If no packets are shown the sender has not sent any weather packets the latest 10 day(s).
| Time | Temp. | Humidity | Pressure | Rain* | Wind** | Luminosity | Snow |
|---|---|---|---|---|---|---|---|
| 1777629063 | 25° C | 59% | 1013.2 hPa | 0 mm | - | - | - |
| 1777628463 | 23.33° C | 61% | 1013.2 hPa | 0 mm | - | - | - |
| 1777627863 | 22.78° C | 63% | 1013.2 hPa | 0 mm | - | - | - |
| 1777627263 | 22.78° C | 62% | 1013.2 hPa | 0 mm | - | - | - |
| 1777626663 | 22.78° C | 63% | 1013.3 hPa | 0 mm | - | - | - |
| 1777626063 | 22.78° C | 63% | 1013.4 hPa | 0 mm | - | - | - |
| 1777625463 | 23.33° C | 61% | 1013.5 hPa | 0 mm | - | - | - |
| 1777624863 | 23.33° C | 64% | 1013.5 hPa | 0 mm | - | - | - |
| 1777624263 | 23.33° C | 62% | 1013.5 hPa | 0 mm | - | - | - |
| 1777623663 | 23.33° C | 62% | 1013.5 hPa | 0 mm | - | - | - |
| 1777623063 | 22.22° C | 66% | 1013.6 hPa | 0 mm | - | - | - |
| 1777622463 | 22.22° C | 65% | 1013.6 hPa | 0 mm | - | - | - |
| 1777621863 | 22.22° C | 64% | 1013.7 hPa | 0 mm | - | - | - |
| 1777621263 | 23.33° C | 62% | 1013.7 hPa | 0 mm | - | - | - |
| 1777620663 | 23.33° C | 61% | 1013.7 hPa | 0 mm | - | - | - |
| 1777620063 | 22.78° C | 60% | 1013.6 hPa | 0 mm | - | - | - |
| 1777619463 | 22.78° C | 60% | 1013.6 hPa | 0 mm | - | - | - |
| 1777618863 | 22.78° C | 61% | 1013.7 hPa | 0 mm | - | - | - |
| 1777618263 | 22.78° C | 59% | 1013.7 hPa | 0 mm | - | - | - |
| 1777617663 | 22.78° C | 57% | 1013.6 hPa | 0 mm | - | - | - |
| 1777617063 | 22.78° C | 59% | 1013.6 hPa | 0 mm | - | - | - |
| 1777616463 | 22.22° C | 59% | 1013.6 hPa | 0 mm | - | - | - |
| 1777615863 | 23.33° C | 56% | 1013.7 hPa | 0 mm | - | - | - |
| 1777615263 | 23.33° C | 55% | 1013.6 hPa | 0 mm | - | - | - |
| 1777614663 | 22.78° C | 52% | 1013.3 hPa | 0 mm | - | - | - |
* Rain latest hour (hover to see other rain measurements)
** Current wind speed in m/s (hover to see current wind gust speed)